Terminal Aerodrome Forecast
Issued by NWS

Home | Current Version | Previous Version | Text Only | Print | Product List | Glossary On
Versions: 1 2 3 4 5 6 7 8 9 10 11 12 13
000
FTUS45 KGGW 230700 AAA
TAFOLF
TAF AMD
KOLF 230710Z 2307/2406 08019KT P6SM BKN120
     FM231000 08016KT P6SM VCSH SCT050 BKN090
     FM231200 06013KT 5SM -SHRA SCT030 BKN060
     FM231500 29019KT 5SM -SHRA BKN045
     FM240000 27017KT P6SM OVC250=

USA.gov is the U.S. government's official web portal to all federal, state and local government web resources and services.